Babson Park, Massachusetts
Current Conditions -  °F | °C
As of 4:03 AM on Friday 24 Oct 2014 (Local Time) from KOWD Reporting Station
Light Rain Light Rain  
Wind Chill: 50°   Ceiling: 2000
Heat Index: 50°   Visibility: 4mi
Dew Point: 48°   Wind: 7mph
Humidity: 93%   Direction: 330°NNW
Pressure: 29.65"   Gusts: NA
Location:  42.3°N, 71.26°W
Report Text: KOWD 240803Z AUTO 33006KT 4SM -RA BR SCT010 BKN020 OVC040 10/09 A2965 RMK AO2 P0001 T01000089
Loading
Personal Weather Stations






























Interactive Weather Map New forecast layout! Learn more

10-Day Weather Forecast

Advertisements
Track Severe Weather on mobile